Time;durP1;ratioP1;P1;durP2;ratioP2;P2;SDS_P1;SDS_P2;PMS_P1;PMS_P2;Temp;Humidity;BMP_temperature;BMP_pressure;BME280_temperature;BME280_humidity;BME280_pressure;Samples;Min_cycle;Max_cycle;Signal;HPM_P1;HPM_P2
2023/06/26 00:01:33;;;;;;;9.98;8.98;;;24.30;99.90;;;;;;5093223;28;20530;-62
2023/06/26 00:04:01;;;;;;;10.73;9.63;;;24.30;99.90;;;;;;5093800;28;20044;-62
2023/06/26 00:06:39;;;;;;;11.30;10.20;;;24.30;99.90;;;;;;5093831;28;20052;-62
2023/06/26 00:09:05;;;;;;;10.65;9.05;;;24.20;99.90;;;;;;5093322;28;20051;-62
2023/06/26 00:11:33;;;;;;;10.77;9.68;;;24.10;99.90;;;;;;5093108;28;20106;-62
2023/06/26 00:14:02;;;;;;;11.93;10.70;;;24.10;99.90;;;;;;5093472;28;20059;-62
2023/06/26 00:16:28;;;;;;;11.90;10.90;;;24.00;99.90;;;;;;5092902;28;20181;-62
2023/06/26 00:18:54;;;;;;;10.38;9.38;;;24.00;99.90;;;;;;5093386;28;20040;-63
2023/06/26 00:21:20;;;;;;;11.18;9.23;;;24.00;99.90;;;;;;5092518;28;20376;-63
2023/06/26 00:23:46;;;;;;;11.85;10.75;;;24.00;99.90;;;;;;5093108;28;20040;-63
2023/06/26 00:26:13;;;;;;;10.98;9.98;;;23.80;99.90;;;;;;5093299;28;20052;-63
2023/06/26 00:28:39;;;;;;;12.13;10.95;;;23.80;99.90;;;;;;5092411;28;20106;-63
2023/06/26 00:31:05;;;;;;;11.38;10.38;;;23.80;99.90;;;;;;5092653;28;20372;-63
2023/06/26 00:33:31;;;;;;;11.02;9.93;;;23.70;99.90;;;;;;5093133;28;20048;-63
2023/06/26 00:35:58;;;;;;;11.57;10.50;;;23.70;99.90;;;;;;5093191;28;20044;-63
2023/06/26 00:38:24;;;;;;;11.57;10.43;;;23.70;99.90;;;;;;5093287;28;20052;-62
2023/06/26 00:40:50;;;;;;;12.90;11.70;;;23.60;99.90;;;;;;5092396;28;20044;-62
2023/06/26 00:43:16;;;;;;;12.68;11.48;;;23.60;99.90;;;;;;5092618;28;20358;-62
2023/06/26 00:45:43;;;;;;;12.52;11.38;;;23.60;99.90;;;;;;5092692;28;20480;-61
2023/06/26 00:48:11;;;;;;;13.10;10.70;;;23.50;99.90;;;;;;5092845;28;20078;-62
2023/06/26 00:50:38;;;;;;;11.80;10.70;;;23.50;99.90;;;;;;5091973;28;20055;-62
2023/06/26 00:53:04;;;;;;;12.73;11.52;;;23.60;99.90;;;;;;5092700;28;20071;-62
2023/06/26 00:55:30;;;;;;;11.88;10.80;;;23.40;99.90;;;;;;5092343;28;20372;-64
2023/06/26 00:57:57;;;;;;;13.68;12.25;;;23.40;99.90;;;;;;5092792;28;20047;-63
2023/06/26 01:00:23;;;;;;;13.57;12.27;;;23.40;99.90;;;;;;5092707;28;20044;-62
2023/06/26 01:02:49;;;;;;;12.70;11.55;;;23.40;99.90;;;;;;5092716;28;20101;-62
2023/06/26 01:05:20;;;;;;;12.93;11.73;;;23.40;99.90;;;;;;5092311;28;20102;-62
2023/06/26 01:07:48;;;;;;;12.50;11.38;;;23.40;99.90;;;;;;5092412;28;20101;-62
2023/06/26 01:10:15;;;;;;;13.05;11.77;;;23.30;99.90;;;;;;5091575;28;20044;-62
2023/06/26 01:12:41;;;;;;;13.32;11.93;;;23.30;99.90;;;;;;5092225;28;20396;-62
2023/06/26 01:15:08;;;;;;;13.38;12.15;;;23.30;99.90;;;;;;5091935;28;20472;-62
2023/06/26 01:17:44;;;;;;;14.15;12.75;;;23.30;99.90;;;;;;5092314;28;20050;-62
2023/06/26 01:20:11;;;;;;;12.65;11.45;;;23.20;99.90;;;;;;5091629;28;20044;-62
2023/06/26 01:23:11;;;;;;;12.57;11.30;;;23.20;99.90;;;;;;5092624;28;20048;-62
2023/06/26 01:26:12;;;;;;;12.73;11.63;;;23.20;99.90;;;;;;5092328;28;20472;-62
2023/06/26 01:28:42;;;;;;;13.38;12.18;;;23.20;99.90;;;;;;5094132;28;20491;-62
2023/06/26 01:31:10;;;;;;;13.23;11.90;;;23.20;99.90;;;;;;5078465;28;20448;-62
2023/06/26 01:33:36;;;;;;;13.70;12.38;;;23.20;99.90;;;;;;5095758;28;20105;-62
2023/06/26 01:36:03;;;;;;;13.98;12.50;;;23.20;99.90;;;;;;5096137;28;20048;-63
2023/06/26 01:38:30;;;;;;;12.98;11.73;;;23.10;99.90;;;;;;5095830;28;20044;-62
2023/06/26 01:40:56;;;;;;;12.82;11.63;;;23.20;99.90;;;;;;5095759;28;20051;-62
2023/06/26 01:44:00;;;;;;;13.20;11.95;;;23.20;99.90;;;;;;5078359;28;20048;-62
2023/06/26 01:46:45;;;;;;;13.18;11.80;;;23.20;99.90;;;;;;5078249;28;20055;-62
2023/06/26 01:49:32;;;;;;;12.75;11.55;;;23.10;99.90;;;;;;5078016;28;20058;-62
2023/06/26 01:52:24;;;;;;;13.43;12.13;;;23.10;99.90;;;;;;5096244;28;20048;-62
2023/06/26 01:55:23;;;;;;;13.35;12.05;;;23.20;99.90;;;;;;5096504;28;20052;-62
2023/06/26 01:57:52;;;;;;;12.88;11.57;;;23.10;99.90;;;;;;5096045;28;20048;-62
2023/06/26 02:00:23;;;;;;;13.45;12.25;;;23.10;99.90;;;;;;5095315;28;20339;-63
2023/06/26 02:02:49;;;;;;;13.52;11.95;;;23.10;99.90;;;;;;5095771;28;20416;-62
2023/06/26 02:05:15;;;;;;;12.82;11.52;;;23.00;99.90;;;;;;5095319;28;20048;-62
2023/06/26 02:07:42;;;;;;;14.75;13.27;;;23.00;99.90;;;;;;5095615;28;20058;-62
2023/06/26 02:10:08;;;;;;;13.75;12.35;;;23.10;99.90;;;;;;5090416;28;20051;-62
2023/06/26 02:12:36;;;;;;;14.40;13.10;;;23.10;99.90;;;;;;5095616;28;20044;-62
2023/06/26 02:15:04;;;;;;;13.70;12.35;;;23.00;99.90;;;;;;5077922;28;20048;-64
2023/06/26 02:17:30;;;;;;;13.43;12.15;;;23.00;99.90;;;;;;5095680;28;20044;-62
2023/06/26 02:19:56;;;;;;;14.43;13.10;;;23.00;99.90;;;;;;5094780;28;20418;-62
2023/06/26 02:22:23;;;;;;;13.88;12.55;;;23.10;99.90;;;;;;5095511;28;20044;-62
2023/06/26 02:24:49;;;;;;;12.27;11.07;;;23.10;99.90;;;;;;5095468;28;20259;-62
2023/06/26 02:27:15;;;;;;;14.70;13.50;;;23.00;99.90;;;;;;5095359;28;20052;-62
2023/06/26 02:29:42;;;;;;;14.80;13.30;;;23.00;99.90;;;;;;5094816;28;20084;-62
2023/06/26 02:32:08;;;;;;;14.43;13.02;;;22.90;99.90;;;;;;5095415;28;20044;-62
2023/06/26 02:34:35;;;;;;;15.75;14.23;;;23.00;99.90;;;;;;5094459;28;20056;-63
2023/06/26 02:37:01;;;;;;;14.90;13.50;;;22.90;99.90;;;;;;5095315;28;20048;-62
2023/06/26 02:39:28;;;;;;;14.95;13.43;;;22.90;99.90;;;;;;5094306;28;20044;-62
2023/06/26 02:41:54;;;;;;;15.35;13.90;;;22.90;99.90;;;;;;5095465;28;20044;-62
2023/06/26 02:44:21;;;;;;;15.40;14.07;;;22.90;99.90;;;;;;5095097;28;20059;-62
2023/06/26 02:46:47;;;;;;;14.95;13.45;;;22.80;99.90;;;;;;5095270;28;20372;-63
2023/06/26 02:49:13;;;;;;;15.02;13.52;;;22.80;99.90;;;;;;5093904;28;20058;-62
2023/06/26 02:51:40;;;;;;;16.00;14.57;;;22.80;99.90;;;;;;5094831;28;20052;-62
2023/06/26 02:54:06;;;;;;;15.45;14.02;;;22.70;99.90;;;;;;5094678;28;20051;-62
2023/06/26 02:56:32;;;;;;;15.70;14.32;;;22.70;99.90;;;;;;5094681;28;20058;-63
2023/06/26 02:58:58;;;;;;;15.57;14.02;;;22.70;99.90;;;;;;5094745;28;20119;-62
2023/06/26 03:01:25;;;;;;;16.85;15.15;;;22.70;99.90;;;;;;5094674;28;20456;-62
2023/06/26 03:03:51;;;;;;;16.10;14.50;;;22.60;99.90;;;;;;5094798;28;20043;-62
2023/06/26 03:06:17;;;;;;;15.65;14.35;;;22.60;99.90;;;;;;5094377;28;20364;-63
2023/06/26 03:08:43;;;;;;;15.40;13.95;;;22.50;99.90;;;;;;5093611;28;20499;-62
2023/06/26 03:11:09;;;;;;;15.50;14.10;;;22.50;99.90;;;;;;5094214;28;20047;-63
2023/06/26 03:13:36;;;;;;;15.38;14.00;;;22.50;99.90;;;;;;5094331;28;20052;-62
2023/06/26 03:16:03;;;;;;;15.75;12.98;;;22.40;99.90;;;;;;5094613;28;20375;-63
2023/06/26 03:18:30;;;;;;;12.90;11.55;;;22.40;99.90;;;;;;5094236;28;20044;-63
2023/06/26 03:20:56;;;;;;;11.85;9.38;;;22.40;99.90;;;;;;5093599;28;20546;-62
2023/06/26 03:23:24;;;;;;;11.05;9.00;;;22.50;99.90;;;;;;5094460;28;20048;-63
2023/06/26 03:25:51;;;;;;;12.10;8.90;;;22.50;99.90;;;;;;5094144;28;20044;-63
2023/06/26 03:28:17;;;;;;;11.05;7.90;;;22.50;99.90;;;;;;5094053;28;20056;-62
2023/06/26 03:30:43;;;;;;;11.50;8.68;;;22.50;99.90;;;;;;5093042;28;20048;-62
2023/06/26 03:33:10;;;;;;;11.85;8.02;;;22.50;99.90;;;;;;5093810;28;20060;-63
2023/06/26 03:35:36;;;;;;;8.98;6.45;;;22.60;99.90;;;;;;5093644;28;20472;-63
2023/06/26 03:38:04;;;;;;;9.68;7.18;;;22.60;99.90;;;;;;5093877;28;20047;-63
2023/06/26 03:40:37;;;;;;;8.98;6.82;;;22.60;99.90;;;;;;5093431;28;20109;-63
2023/06/26 03:43:03;;;;;;;12.90;8.00;;;22.50;99.90;;;;;;5093835;28;20517;-62
2023/06/26 03:45:30;;;;;;;8.93;7.30;;;22.60;99.90;;;;;;5075997;28;20051;-63
2023/06/26 03:47:56;;;;;;;9.90;7.45;;;22.60;99.90;;;;;;5094027;28;20448;-63
2023/06/26 03:50:22;;;;;;;9.30;7.47;;;22.60;99.90;;;;;;5091650;28;20487;-63
2023/06/26 03:52:50;;;;;;;11.98;6.88;;;22.60;99.90;;;;;;5093516;28;20052;-63
2023/06/26 03:55:17;;;;;;;9.13;7.50;;;22.60;99.90;;;;;;5093652;28;20059;-62
2023/06/26 03:57:43;;;;;;;11.70;7.13;;;22.60;99.90;;;;;;5075862;28;20052;-63
2023/06/26 04:00:12;;;;;;;9.43;7.38;;;22.50;99.90;;;;;;5092498;28;20040;-63
2023/06/26 04:02:38;;;;;;;9.80;7.05;;;22.50;99.90;;;;;;5075553;28;20043;-63
2023/06/26 04:05:05;;;;;;;9.20;6.97;;;22.50;99.90;;;;;;5093467;28;20071;-63
2023/06/26 04:07:31;;;;;;;10.02;7.30;;;22.50;99.90;;;;;;5093454;28;20052;-63
2023/06/26 04:09:58;;;;;;;10.93;6.85;;;22.40;99.90;;;;;;5074305;28;20495;-63
2023/06/26 04:12:24;;;;;;;11.63;6.95;;;22.40;99.90;;;;;;5093280;28;20048;-61
2023/06/26 04:14:50;;;;;;;12.27;7.53;;;22.40;99.90;;;;;;5093373;28;20200;-61
2023/06/26 04:17:17;;;;;;;12.27;7.65;;;22.40;99.90;;;;;;5093324;28;20168;-62
2023/06/26 04:19:43;;;;;;;14.88;7.85;;;22.30;99.90;;;;;;5092352;28;20044;-61
2023/06/26 04:22:09;;;;;;;11.75;7.22;;;22.20;99.90;;;;;;5093306;28;20368;-62
2023/06/26 04:24:35;;;;;;;13.20;7.25;;;22.20;99.90;;;;;;5093034;28;20097;-62
2023/06/26 04:27:03;;;;;;;13.88;7.80;;;22.10;99.90;;;;;;5093623;28;20126;-61
2023/06/26 04:29:29;;;;;;;12.57;8.45;;;22.00;99.90;;;;;;5092058;28;20055;-60
2023/06/26 04:31:58;;;;;;;10.98;7.40;;;22.10;99.90;;;;;;5093079;28;20466;-61
2023/06/26 04:34:25;;;;;;;14.30;8.55;;;22.00;99.90;;;;;;5093019;28;20058;-61
2023/06/26 04:36:51;;;;;;;14.57;8.25;;;22.00;99.90;;;;;;5092549;28;20039;-61
2023/06/26 04:39:18;;;;;;;14.90;7.97;;;22.10;99.90;;;;;;5091867;28;20363;-62
2023/06/26 04:41:45;;;;;;;13.32;7.82;;;22.00;99.90;;;;;;5092752;28;20046;-62
2023/06/26 04:44:12;;;;;;;12.95;7.90;;;22.00;99.90;;;;;;5092483;28;20059;-61
2023/06/26 04:46:41;;;;;;;13.43;7.93;;;22.20;99.90;;;;;;5092527;28;20044;-62
2023/06/26 04:49:08;;;;;;;12.25;7.78;;;22.00;99.90;;;;;;5091469;28;20048;-62
2023/06/26 04:51:40;;;;;;;13.25;7.38;;;22.00;99.90;;;;;;5092167;28;20132;-62
2023/06/26 04:54:10;;;;;;;16.20;7.65;;;22.00;99.90;;;;;;5092786;28;20074;-62
2023/06/26 04:56:37;;;;;;;11.02;7.32;;;21.90;99.90;;;;;;5092720;28;20097;-62
2023/06/26 04:59:03;;;;;;;13.15;7.53;;;21.80;99.90;;;;;;5092904;28;20049;-62
2023/06/26 05:01:29;;;;;;;13.20;7.50;;;21.80;99.90;;;;;;5092353;28;20080;-62
2023/06/26 05:03:56;;;;;;;12.93;7.28;;;21.80;99.90;;;;;;5087918;28;20036;-62
2023/06/26 05:06:23;;;;;;;12.32;6.90;;;21.80;99.90;;;;;;5082944;28;20055;-62
2023/06/26 05:08:49;;;;;;;11.48;7.00;;;21.70;99.90;;;;;;5083983;28;20461;-63
2023/06/26 05:11:15;;;;;;;14.88;7.60;;;21.60;99.90;;;;;;5080948;28;20048;-62
2023/06/26 05:13:42;;;;;;;13.77;7.38;;;21.70;99.90;;;;;;5081935;28;20062;-62
2023/06/26 05:16:09;;;;;;;14.07;7.47;;;21.70;99.90;;;;;;5080968;28;20048;-62
2023/06/26 05:18:36;;;;;;;14.73;6.93;;;21.80;99.90;;;;;;5087956;28;20429;-62
2023/06/26 05:21:02;;;;;;;12.60;7.10;;;22.10;99.90;;;;;;5076576;28;20115;-62
2023/06/26 05:23:31;;;;;;;13.88;6.75;;;22.70;99.90;;;;;;5071359;28;20083;-61
2023/06/26 05:25:58;;;;;;;12.82;7.22;;;23.00;99.90;;;;;;5072032;28;20044;-62
2023/06/26 05:28:27;;;;;;;10.05;6.00;;;22.90;99.90;;;;;;5072020;28;20064;-62
2023/06/26 05:30:56;;;;;;;11.13;5.72;;;22.70;99.90;;;;;;5090020;28;20052;-61
2023/06/26 05:33:24;;;;;;;9.25;5.20;;;22.70;99.90;;;;;;5092042;28;20062;-62
2023/06/26 05:35:54;;;;;;;9.10;4.78;;;22.70;99.90;;;;;;5091993;28;20048;-62
2023/06/26 05:38:21;;;;;;;8.35;4.18;;;22.90;99.90;;;;;;5092321;28;20048;-62
2023/06/26 05:40:47;;;;;;;15.57;5.03;;;23.20;99.90;;;;;;5090814;28;20502;-63
2023/06/26 05:43:14;;;;;;;8.23;4.57;;;23.40;99.90;;;;;;5092209;28;20236;-62
2023/06/26 05:45:42;;;;;;;13.15;4.70;;;23.70;99.90;;;;;;5092162;28;20052;-62
2023/06/26 05:48:08;;;;;;;8.85;4.35;;;24.20;99.90;;;;;;5092273;28;20052;-61
2023/06/26 05:50:35;;;;;;;8.10;4.30;;;23.90;99.90;;;;;;5088336;28;20056;-61
2023/06/26 05:53:03;;;;;;;7.43;3.53;;;23.80;99.90;;;;;;5091991;28;20416;-62
2023/06/26 05:55:29;;;;;;;6.88;3.70;;;24.10;99.90;;;;;;5091767;28;20180;-62
2023/06/26 05:57:57;;;;;;;7.07;3.70;;;24.40;99.90;;;;;;5091167;28;20055;-62
2023/06/26 06:00:26;;;;;;;8.18;2.90;;;24.50;99.90;;;;;;5091653;28;20048;-61
2023/06/26 06:02:54;;;;;;;8.63;3.15;;;24.60;99.90;;;;;;5092023;28;20052;-62
2023/06/26 06:05:21;;;;;;;6.25;3.13;;;24.70;99.90;;;;;;5091546;28;20372;-63
2023/06/26 06:07:48;;;;;;;8.30;2.95;;;25.40;99.90;;;;;;5091689;28;20086;-64
2023/06/26 06:10:14;;;;;;;5.55;2.80;;;26.00;99.90;;;;;;5090832;28;20056;-62
2023/06/26 06:12:41;;;;;;;5.88;2.90;;;25.80;99.90;;;;;;5091875;28;20048;-62
2023/06/26 06:15:07;;;;;;;5.43;2.80;;;25.40;99.90;;;;;;5077309;28;20478;-63
2023/06/26 06:17:34;;;;;;;5.95;3.10;;;25.00;99.90;;;;;;5076947;28;20051;-62
2023/06/26 06:20:00;;;;;;;5.95;2.53;;;24.40;99.90;;;;;;5094747;28;20048;-63
2023/06/26 06:22:26;;;;;;;5.93;2.88;;;23.80;99.90;;;;;;5077821;28;20098;-63
2023/06/26 06:24:53;;;;;;;6.82;2.95;;;23.50;99.90;;;;;;5095505;28;20039;-61
2023/06/26 06:27:19;;;;;;;5.72;2.75;;;23.20;99.90;;;;;;5095131;28;20052;-63
2023/06/26 06:29:45;;;;;;;5.72;2.80;;;23.70;99.90;;;;;;5094949;28;20082;-62
2023/06/26 06:32:11;;;;;;;6.80;2.70;;;24.20;99.90;;;;;;5095079;28;20365;-62
2023/06/26 06:34:38;;;;;;;6.90;2.85;;;24.90;99.90;;;;;;5094637;28;20055;-61
2023/06/26 06:37:04;;;;;;;6.15;2.60;;;25.10;99.90;;;;;;5088926;28;20063;-61
2023/06/26 06:39:30;;;;;;;6.07;2.95;;;25.10;99.90;;;;;;5078827;28;20052;-61
2023/06/26 06:41:56;;;;;;;7.10;3.03;;;24.90;99.90;;;;;;5086433;28;20480;-61
2023/06/26 06:44:23;;;;;;;6.15;2.55;;;25.00;99.90;;;;;;5074790;28;20052;-64
2023/06/26 06:46:49;;;;;;;6.97;3.20;;;25.40;99.90;;;;;;5073984;28;20052;-63
2023/06/26 06:49:15;;;;;;;5.75;2.95;;;25.60;99.90;;;;;;5078535;28;20043;-63
2023/06/26 06:51:49;;;;;;;7.50;2.80;;;25.40;99.90;;;;;;5094628;28;20449;-63
2023/06/26 06:54:19;;;;;;;6.63;2.70;;;25.40;99.90;;;;;;5094700;28;20060;-62
2023/06/26 06:56:45;;;;;;;6.15;2.90;;;25.70;99.90;;;;;;5094195;28;20048;-63
2023/06/26 06:59:12;;;;;;;8.38;2.63;;;26.60;99.90;;;;;;5075391;28;20361;-63
2023/06/26 07:01:39;;;;;;;16.45;2.90;;;26.50;99.60;;;;;;5079079;28;20098;-62
2023/06/26 07:04:06;;;;;;;4.97;2.78;;;25.90;99.50;;;;;;5093878;28;20078;-61
2023/06/26 07:06:32;;;;;;;8.25;2.95;;;25.40;99.90;;;;;;5076627;28;20076;-64
2023/06/26 07:08:58;;;;;;;6.95;2.70;;;25.40;99.90;;;;;;5094793;28;20052;-64
2023/06/26 07:11:24;;;;;;;7.20;2.70;;;25.40;99.90;;;;;;5092454;28;20052;-61
2023/06/26 07:13:51;;;;;;;5.22;2.80;;;25.30;99.90;;;;;;5094316;28;20377;-62
2023/06/26 07:16:18;;;;;;;5.53;2.45;;;25.10;99.90;;;;;;5094537;28;20048;-62
2023/06/26 07:18:44;;;;;;;5.93;2.53;;;25.30;99.90;;;;;;5094655;28;20145;-62
2023/06/26 07:21:10;;;;;;;5.15;2.58;;;25.10;99.90;;;;;;5094402;28;20125;-62
2023/06/26 07:23:37;;;;;;;4.38;2.50;;;25.10;99.90;;;;;;5095218;28;20044;-62
2023/06/26 07:26:03;;;;;;;5.68;2.90;;;25.00;99.90;;;;;;5093636;28;20055;-62
2023/06/26 07:28:29;;;;;;;5.90;2.58;;;25.20;99.90;;;;;;5095576;28;20044;-63
2023/06/26 07:30:55;;;;;;;5.63;2.50;;;24.80;99.90;;;;;;5095072;28;20379;-63
2023/06/26 07:33:21;;;;;;;4.70;2.33;;;24.80;99.90;;;;;;5095234;28;20399;-62
2023/06/26 07:35:48;;;;;;;5.22;2.60;;;24.50;99.90;;;;;;5094425;28;20135;-62
2023/06/26 07:38:14;;;;;;;5.05;2.55;;;24.60;99.90;;;;;;5094650;28;20465;-62
2023/06/26 07:40:40;;;;;;;5.55;2.60;;;24.30;99.90;;;;;;5094506;28;20456;-63
2023/06/26 07:43:06;;;;;;;6.55;2.45;;;24.60;99.90;;;;;;5094740;28;20048;-62
2023/06/26 07:45:33;;;;;;;5.25;2.70;;;24.80;99.90;;;;;;5094427;28;20048;-62
2023/06/26 07:47:59;;;;;;;6.28;2.58;;;25.10;99.90;;;;;;5094085;28;20052;-62
2023/06/26 07:50:26;;;;;;;5.22;2.90;;;25.00;99.90;;;;;;5094557;28;20113;-62
2023/06/26 07:52:53;;;;;;;4.35;2.40;;;25.20;99.90;;;;;;5094540;28;20197;-62
2023/06/26 07:55:19;;;;;;;7.03;2.90;;;25.00;99.90;;;;;;5094245;28;20062;-62
2023/06/26 07:57:46;;;;;;;5.70;2.78;;;24.50;99.90;;;;;;5094161;28;20438;-62
2023/06/26 08:00:12;;;;;;;6.28;2.53;;;24.20;99.90;;;;;;5094327;28;20055;-63
2023/06/26 08:02:38;;;;;;;6.80;2.67;;;24.20;99.90;;;;;;5094326;28;20519;-62
2023/06/26 08:05:05;;;;;;;4.47;2.70;;;24.20;99.90;;;;;;5094027;28;20480;-62
2023/06/26 08:07:31;;;;;;;7.22;3.13;;;24.30;99.90;;;;;;5076010;28;20048;-62
2023/06/26 08:09:57;;;;;;;7.82;3.15;;;24.30;99.90;;;;;;5093563;28;20048;-62
2023/06/26 08:12:24;;;;;;;6.90;2.63;;;24.20;99.90;;;;;;5094377;28;20166;-62
2023/06/26 08:14:50;;;;;;;5.47;2.60;;;24.30;99.90;;;;;;5094391;28;20109;-63
2023/06/26 08:17:16;;;;;;;12.45;3.17;;;24.30;99.90;;;;;;5094443;28;20113;-62
2023/06/26 08:19:43;;;;;;;6.20;3.25;;;24.50;99.90;;;;;;5093545;28;20105;-63
2023/06/26 08:22:09;;;;;;;7.35;2.53;;;24.50;99.90;;;;;;5093886;28;20374;-63
2023/06/26 08:24:36;;;;;;;4.57;2.78;;;24.30;99.90;;;;;;5094035;28;20055;-63
2023/06/26 08:27:03;;;;;;;5.55;2.80;;;24.10;99.90;;;;;;5093382;28;20051;-63
2023/06/26 08:29:32;;;;;;;6.57;2.80;;;23.90;99.90;;;;;;5092994;28;20044;-63
2023/06/26 08:31:59;;;;;;;8.18;3.35;;;23.80;99.90;;;;;;5093109;28;20169;-64
2023/06/26 08:34:25;;;;;;;8.02;3.30;;;24.00;99.90;;;;;;5093612;28;20117;-62
2023/06/26 08:36:51;;;;;;;6.55;3.20;;;24.10;99.90;;;;;;5093383;28;20057;-62
2023/06/26 08:39:18;;;;;;;6.80;3.05;;;24.00;99.90;;;;;;5092912;28;20040;-61
2023/06/26 08:41:45;;;;;;;9.30;3.22;;;23.80;99.90;;;;;;5092827;28;20048;-62
2023/06/26 08:44:14;;;;;;;7.90;3.30;;;23.60;99.90;;;;;;5093379;28;20051;-62
2023/06/26 08:46:41;;;;;;;6.80;3.42;;;23.40;99.90;;;;;;5092655;28;20047;-62
2023/06/26 08:49:20;;;;;;;6.40;3.30;;;23.40;99.90;;;;;;5093192;28;20112;-62
2023/06/26 08:51:52;;;;;;;4.70;2.90;;;23.30;99.90;;;;;;5093190;28;20105;-62
2023/06/26 08:54:27;;;;;;;5.00;3.35;;;23.50;99.90;;;;;;5093264;28;20452;-62
2023/06/26 08:56:54;;;;;;;9.02;3.67;;;23.60;99.90;;;;;;5092646;28;20052;-63
2023/06/26 08:59:21;;;;;;;7.13;3.40;;;23.40;99.90;;;;;;5092864;28;20044;-62
2023/06/26 09:01:48;;;;;;;7.57;3.75;;;23.30;99.90;;;;;;5092909;28;20458;-62
2023/06/26 09:04:14;;;;;;;8.68;3.90;;;23.30;99.90;;;;;;5092865;28;20399;-62
2023/06/26 09:06:41;;;;;;;7.88;3.53;;;23.40;99.90;;;;;;5092609;28;20040;-63
2023/06/26 09:09:07;;;;;;;8.02;3.72;;;23.40;99.90;;;;;;5092850;28;20112;-61
2023/06/26 09:11:33;;;;;;;7.07;4.00;;;23.40;99.90;;;;;;5092787;28;20060;-62
2023/06/26 09:14:00;;;;;;;5.43;3.33;;;23.50;99.90;;;;;;5092997;28;20048;-62
2023/06/26 09:16:27;;;;;;;7.47;3.75;;;23.70;99.90;;;;;;5092611;28;20051;-62
2023/06/26 09:18:53;;;;;;;8.60;3.65;;;23.80;99.90;;;;;;5092693;28;20048;-62
2023/06/26 09:21:22;;;;;;;7.93;3.40;;;23.80;99.90;;;;;;5092801;28;20518;-62
2023/06/26 09:23:50;;;;;;;7.30;4.00;;;23.70;99.90;;;;;;5092660;28;20048;-62
2023/06/26 09:26:16;;;;;;;7.95;3.65;;;23.70;99.90;;;;;;5092377;28;20040;-62
2023/06/26 09:28:43;;;;;;;8.02;3.70;;;23.80;99.90;;;;;;5092650;28;20109;-62
2023/06/26 09:31:10;;;;;;;6.35;3.10;;;23.50;99.90;;;;;;5092473;28;20044;-62
2023/06/26 09:33:37;;;;;;;9.75;3.92;;;23.50;99.90;;;;;;5092336;28;20064;-62
2023/06/26 09:36:24;;;;;;;8.10;4.32;;;23.30;99.90;;;;;;5092579;28;20056;-62
2023/06/26 09:38:51;;;;;;;6.97;3.60;;;23.60;99.90;;;;;;5093101;28;20040;-62
2023/06/26 09:41:17;;;;;;;14.57;3.90;;;23.60;99.90;;;;;;5092207;28;20055;-62
2023/06/26 09:43:51;;;;;;;9.85;4.45;;;23.80;99.90;;;;;;5092520;28;20060;-62
2023/06/26 09:46:24;;;;;;;8.20;4.35;;;23.90;99.90;;;;;;5091771;28;20526;-62
2023/06/26 09:49:04;;;;;;;6.25;4.13;;;23.50;99.90;;;;;;5093801;28;20044;-62
2023/06/26 09:51:35;;;;;;;9.40;4.00;;;23.50;99.90;;;;;;5076701;28;20048;-63
2023/06/26 09:54:02;;;;;;;7.25;3.60;;;23.70;99.90;;;;;;5076637;28;20078;-62
2023/06/26 09:56:29;;;;;;;7.13;3.55;;;23.80;99.90;;;;;;5076228;28;20477;-63
2023/06/26 09:58:57;;;;;;;7.85;3.40;;;23.90;99.90;;;;;;5076363;28;20483;-63
2023/06/26 10:01:25;;;;;;;10.38;3.80;;;24.00;99.90;;;;;;5096212;28;20040;-63
2023/06/26 10:03:51;;;;;;;7.47;3.53;;;23.90;99.90;;;;;;5096794;28;20090;-63
2023/06/26 10:06:24;;;;;;;6.22;3.22;;;24.20;99.80;;;;;;5096666;28;20043;-63
2023/06/26 10:08:51;;;;;;;6.45;3.33;;;24.20;99.10;;;;;;5096850;28;20090;-63
2023/06/26 10:11:21;;;;;;;9.07;3.80;;;24.40;99.40;;;;;;5095446;28;20062;-62
2023/06/26 10:13:51;;;;;;;12.60;4.15;;;24.30;99.90;;;;;;5096393;28;20044;-64
2023/06/26 10:16:31;;;;;;;14.38;4.15;;;23.80;99.90;;;;;;5095694;28;20113;-62
2023/06/26 10:19:04;;;;;;;9.02;3.15;;;23.70;99.60;;;;;;5096269;28;20040;-63
2023/06/26 10:21:33;;;;;;;7.70;3.28;;;23.70;99.40;;;;;;5096193;28;20040;-62
2023/06/26 10:24:00;;;;;;;7.70;2.95;;;23.70;99.20;;;;;;5096481;28;20044;-62
2023/06/26 10:26:28;;;;;;;6.35;2.90;;;23.80;99.10;;;;;;5095439;28;20052;-63
2023/06/26 10:28:57;;;;;;;7.72;3.08;;;23.90;99.50;;;;;;5078334;28;20056;-63
2023/06/26 10:31:28;;;;;;;6.18;3.00;;;23.80;99.10;;;;;;5094949;28;20117;-63
2023/06/26 10:33:55;;;;;;;7.55;3.13;;;24.00;99.10;;;;;;5095879;28;20124;-63
2023/06/26 10:36:29;;;;;;;11.55;4.50;;;24.10;99.30;;;;;;5096107;28;20070;-63
2023/06/26 10:38:57;;;;;;;11.00;3.92;;;23.90;99.30;;;;;;5096081;28;20048;-62
2023/06/26 10:41:25;;;;;;;5.82;2.88;;;23.90;98.90;;;;;;5096063;28;20480;-63
2023/06/26 10:44:12;;;;;;;9.95;3.33;;;23.80;99.30;;;;;;5095800;28;20052;-63
2023/06/26 10:46:55;;;;;;;5.93;3.15;;;23.90;99.30;;;;;;5095880;28;20044;-63
2023/06/26 10:49:29;;;;;;;5.65;3.10;;;24.00;99.90;;;;;;5094666;28;20060;-63
2023/06/26 10:52:00;;;;;;;9.30;3.28;;;23.80;99.90;;;;;;5095503;28;20094;-63
2023/06/26 10:54:30;;;;;;;11.48;3.40;;;23.80;99.70;;;;;;5095386;28;20473;-63
2023/06/26 10:56:56;;;;;;;7.28;3.75;;;24.00;99.60;;;;;;5095108;28;20056;-63
2023/06/26 10:59:25;;;;;;;8.70;3.42;;;23.90;99.70;;;;;;5094902;28;20048;-62
2023/06/26 11:01:59;;;;;;;10.65;3.13;;;23.80;99.00;;;;;;5095372;28;20048;-63
2023/06/26 11:04:39;;;;;;;5.95;2.65;;;24.00;98.70;;;;;;5096444;28;20048;-63
2023/06/26 11:07:25;;;;;;;8.02;3.17;;;24.10;97.50;;;;;;5078659;28;20044;-63
2023/06/26 11:10:07;;;;;;;8.77;2.97;;;24.20;97.80;;;;;;5095758;28;20052;-63
2023/06/26 11:12:41;;;;;;;8.98;2.90;;;24.40;97.50;;;;;;5095825;28;20047;-63
2023/06/26 11:15:16;;;;;;;5.47;2.67;;;24.10;97.20;;;;;;5096432;28;20048;-63
2023/06/26 11:17:43;;;;;;;5.45;2.72;;;24.20;98.20;;;;;;5095400;28;20056;-63
2023/06/26 11:20:14;;;;;;;8.00;3.10;;;23.90;98.30;;;;;;5095181;28;20515;-63
2023/06/26 11:22:41;;;;;;;8.75;3.20;;;24.10;98.40;;;;;;5095585;28;20380;-63
2023/06/26 11:25:09;;;;;;;8.25;2.50;;;24.00;98.90;;;;;;5095479;28;20056;-63
2023/06/26 11:27:41;;;;;;;5.10;2.30;;;23.90;98.60;;;;;;5095109;28;20044;-63
2023/06/26 11:30:11;;;;;;;7.18;2.53;;;23.70;97.90;;;;;;5095822;28;20044;-63
2023/06/26 11:32:38;;;;;;;7.45;2.50;;;23.70;98.20;;;;;;5096032;28;20047;-64
2023/06/26 11:35:05;;;;;;;5.38;2.60;;;23.80;98.40;;;;;;5096055;28;20048;-63
2023/06/26 11:37:32;;;;;;;5.15;2.13;;;24.10;98.00;;;;;;5095977;28;20051;-64
2023/06/26 11:39:58;;;;;;;5.47;2.20;;;24.10;97.00;;;;;;5094680;28;20055;-63
2023/06/26 11:42:25;;;;;;;10.98;2.55;;;24.50;97.30;;;;;;5077580;28;20048;-63
2023/06/26 11:44:52;;;;;;;7.13;2.45;;;24.60;97.10;;;;;;5095152;28;20044;-63
2023/06/26 11:47:20;;;;;;;6.53;2.08;;;24.70;96.70;;;;;;5094750;28;20078;-63
2023/06/26 11:49:48;;;;;;;7.10;2.10;;;24.80;96.50;;;;;;5093825;28;20407;-63
2023/06/26 11:52:15;;;;;;;6.32;2.30;;;24.70;96.40;;;;;;5095138;28;20073;-63
2023/06/26 11:54:43;;;;;;;9.68;2.25;;;24.70;96.60;;;;;;5077416;28;20059;-64
2023/06/26 11:57:14;;;;;;;8.02;2.45;;;24.30;96.50;;;;;;5095161;28;20052;-63
2023/06/26 11:59:41;;;;;;;6.20;2.80;;;24.20;96.90;;;;;;5094679;28;20105;-64
2023/06/26 12:02:13;;;;;;;9.65;2.72;;;24.50;97.50;;;;;;5094543;28;20048;-63
2023/06/26 12:04:42;;;;;;;4.75;2.17;;;24.60;97.20;;;;;;5095184;28;20044;-63
2023/06/26 12:07:09;;;;;;;9.77;2.95;;;24.20;97.00;;;;;;5094913;28;20077;-63
2023/06/26 12:09:47;;;;;;;5.95;2.03;;;24.20;97.60;;;;;;5094228;28;20048;-62
2023/06/26 12:12:16;;;;;;;9.05;2.97;;;24.10;97.10;;;;;;5075972;28;20048;-63
2023/06/26 12:14:43;;;;;;;8.80;2.63;;;24.10;97.30;;;;;;5094333;28;20051;-63
2023/06/26 12:17:11;;;;;;;5.63;2.38;;;23.90;97.60;;;;;;5076305;28;20121;-63
2023/06/26 12:19:47;;;;;;;5.45;2.05;;;23.70;97.30;;;;;;5094546;28;20051;-63
2023/06/26 12:22:14;;;;;;;5.88;2.15;;;23.30;97.40;;;;;;5094285;28;20055;-63
2023/06/26 12:24:40;;;;;;;6.68;2.42;;;23.50;97.80;;;;;;5094232;28;20180;-63
2023/06/26 12:27:11;;;;;;;6.05;2.15;;;23.50;97.70;;;;;;5093435;28;20049;-63
2023/06/26 12:29:40;;;;;;;9.50;2.25;;;23.70;97.70;;;;;;5093724;28;20047;-63
2023/06/26 12:32:10;;;;;;;6.97;2.38;;;23.40;97.50;;;;;;5093929;28;20051;-63
2023/06/26 12:34:38;;;;;;;5.90;2.22;;;23.20;97.80;;;;;;5094407;28;20071;-63
2023/06/26 12:37:08;;;;;;;8.48;2.40;;;23.30;97.90;;;;;;5094642;28;20052;-63
2023/06/26 12:39:54;;;;;;;6.40;1.85;;;23.50;98.00;;;;;;5093659;28;20055;-63
2023/06/26 12:42:26;;;;;;;7.45;2.50;;;23.70;97.00;;;;;;5094034;28;20058;-63
2023/06/26 12:44:54;;;;;;;10.27;2.40;;;23.60;97.10;;;;;;5093722;28;20353;-63
2023/06/26 12:47:26;;;;;;;6.63;2.00;;;23.60;97.40;;;;;;5093934;28;20043;-63